sensor_id;sensor_type;location;lat;lon;timestamp;pressure;altitude;pressure_sealevel;temperature;humidity
85066;BME280;75401;52.588;13.224;2024-01-06T00:01:49;100270.63;;;3.48;84.29
85066;BME280;75401;52.588;13.224;2024-01-06T00:04:15;100267.88;;;3.49;84.08
85066;BME280;75401;52.588;13.224;2024-01-06T00:06:40;100274.13;;;3.48;84.20
85066;BME280;75401;52.588;13.224;2024-01-06T00:09:06;100263.53;;;3.48;84.13
85066;BME280;75401;52.588;13.224;2024-01-06T00:11:32;100269.44;;;3.52;83.92
85066;BME280;75401;52.588;13.224;2024-01-06T00:13:57;100273.41;;;3.57;83.92
85066;BME280;75401;52.588;13.224;2024-01-06T00:16:22;100270.16;;;3.54;84.08
85066;BME280;75401;52.588;13.224;2024-01-06T00:18:48;100275.31;;;3.55;83.72
85066;BME280;75401;52.588;13.224;2024-01-06T00:21:14;100283.25;;;3.55;84.08
85066;BME280;75401;52.588;13.224;2024-01-06T00:23:40;100277.38;;;3.52;84.02
85066;BME280;75401;52.588;13.224;2024-01-06T00:26:06;100281.81;;;3.51;83.95
85066;BME280;75401;52.588;13.224;2024-01-06T00:28:32;100280.75;;;3.54;83.96
85066;BME280;75401;52.588;13.224;2024-01-06T00:30:57;100282.53;;;3.53;83.63
85066;BME280;75401;52.588;13.224;2024-01-06T00:33:22;100277.47;;;3.50;83.82
85066;BME280;75401;52.588;13.224;2024-01-06T00:35:48;100278.81;;;3.56;84.12
85066;BME280;75401;52.588;13.224;2024-01-06T00:38:13;100258.50;;;3.34;83.53
85066;BME280;75401;52.588;13.224;2024-01-06T00:40:39;100286.97;;;3.53;83.71
85066;BME280;75401;52.588;13.224;2024-01-06T00:43:05;100294.31;;;3.49;83.80
85066;BME280;75401;52.588;13.224;2024-01-06T00:45:30;100294.31;;;3.49;83.93
85066;BME280;75401;52.588;13.224;2024-01-06T00:47:56;100284.69;;;3.48;83.90
85066;BME280;75401;52.588;13.224;2024-01-06T00:50:21;100289.25;;;3.46;83.85
85066;BME280;75401;52.588;13.224;2024-01-06T00:52:46;100282.03;;;3.48;83.96
85066;BME280;75401;52.588;13.224;2024-01-06T00:55:12;100288.41;;;3.46;83.91
85066;BME280;75401;52.588;13.224;2024-01-06T00:57:37;100285.91;;;3.44;83.85
85066;BME280;75401;52.588;13.224;2024-01-06T01:00:05;100240.31;;;3.18;83.17
85066;BME280;75401;52.588;13.224;2024-01-06T01:02:30;100290.34;;;3.44;83.69
85066;BME280;75401;52.588;13.224;2024-01-06T01:04:55;100292.75;;;3.47;83.60
85066;BME280;75401;52.588;13.224;2024-01-06T01:07:21;100302.84;;;3.42;83.48
85066;BME280;75401;52.588;13.224;2024-01-06T01:09:46;100256.63;;;3.12;83.35
85066;BME280;75401;52.588;13.224;2024-01-06T01:12:11;100321.69;;;3.37;83.82
85066;BME280;75401;52.588;13.224;2024-01-06T01:14:36;100321.44;;;3.40;83.83
85066;BME280;75401;52.588;13.224;2024-01-06T01:17:03;100326.72;;;3.40;83.54
85066;BME280;75401;52.588;13.224;2024-01-06T01:19:28;100329.28;;;3.42;84.01
85066;BME280;75401;52.588;13.224;2024-01-06T01:21:54;100325.56;;;3.44;83.55
85066;BME280;75401;52.588;13.224;2024-01-06T01:24:19;100324.56;;;3.45;83.58
85066;BME280;75401;52.588;13.224;2024-01-06T01:26:44;100328.06;;;3.46;83.26
85066;BME280;75401;52.588;13.224;2024-01-06T01:29:09;100329.28;;;3.42;83.64
85066;BME280;75401;52.588;13.224;2024-01-06T01:31:35;100328.44;;;3.41;83.18
85066;BME280;75401;52.588;13.224;2024-01-06T01:34:01;100331.06;;;3.41;83.46
85066;BME280;75401;52.588;13.224;2024-01-06T01:36:26;100335.41;;;3.42;83.49
85066;BME280;75401;52.588;13.224;2024-01-06T01:38:52;100318.06;;;3.38;83.48
85066;BME280;75401;52.588;13.224;2024-01-06T01:41:17;100323.38;;;3.38;83.35
85066;BME280;75401;52.588;13.224;2024-01-06T01:43:42;100325.16;;;3.38;83.47
85066;BME280;75401;52.588;13.224;2024-01-06T01:46:07;100327.22;;;3.34;82.70
85066;BME280;75401;52.588;13.224;2024-01-06T01:48:33;100327.69;;;3.39;83.24
85066;BME280;75401;52.588;13.224;2024-01-06T01:50:59;100327.69;;;3.39;83.11
85066;BME280;75401;52.588;13.224;2024-01-06T01:53:26;100325.16;;;3.38;83.24
85066;BME280;75401;52.588;13.224;2024-01-06T01:55:52;100332.88;;;3.41;83.39
85066;BME280;75401;52.588;13.224;2024-01-06T01:58:17;100336.59;;;3.38;83.12
85066;BME280;75401;52.588;13.224;2024-01-06T02:00:43;100335.72;;;3.38;83.23
85066;BME280;75401;52.588;13.224;2024-01-06T02:03:09;100328.78;;;3.37;83.22
85066;BME280;75401;52.588;13.224;2024-01-06T02:05:36;100323.22;;;3.29;83.44
85066;BME280;75401;52.588;13.224;2024-01-06T02:08:03;100345.59;;;3.36;83.66
85066;BME280;75401;52.588;13.224;2024-01-06T02:10:28;100346.78;;;3.32;83.21
85066;BME280;75401;52.588;13.224;2024-01-06T02:12:53;100346.03;;;3.30;83.38
85066;BME280;75401;52.588;13.224;2024-01-06T02:15:19;100353.97;;;3.30;83.25
85066;BME280;75401;52.588;13.224;2024-01-06T02:17:44;100351.31;;;3.30;83.23
85066;BME280;75401;52.588;13.224;2024-01-06T02:20:11;100346.78;;;3.32;83.54
85066;BME280;75401;52.588;13.224;2024-01-06T02:22:38;100345.94;;;3.31;83.19
85066;BME280;75401;52.588;13.224;2024-01-06T02:25:05;100343.53;;;3.28;83.45
85066;BME280;75401;52.588;13.224;2024-01-06T02:27:32;100350.59;;;3.28;83.52
85066;BME280;75401;52.588;13.224;2024-01-06T02:29:57;100350.28;;;3.32;83.06
85066;BME280;75401;52.588;13.224;2024-01-06T02:32:22;100363.25;;;3.35;83.09
85066;BME280;75401;52.588;13.224;2024-01-06T02:34:48;100354.94;;;3.29;83.41
85066;BME280;75401;52.588;13.224;2024-01-06T02:37:13;100360.00;;;3.32;83.03
85066;BME280;75401;52.588;13.224;2024-01-06T02:39:39;100360.84;;;3.32;83.16
85066;BME280;75401;52.588;13.224;2024-01-06T02:42:05;100362.66;;;3.32;83.34
85066;BME280;75401;52.588;13.224;2024-01-06T02:44:31;100361.06;;;3.29;83.11
85066;BME280;75401;52.588;13.224;2024-01-06T02:46:56;100355.03;;;3.27;83.19
85066;BME280;75401;52.588;13.224;2024-01-06T02:49:21;100362.88;;;3.29;83.43
85066;BME280;75401;52.588;13.224;2024-01-06T02:51:47;100365.88;;;3.24;83.47
85066;BME280;75401;52.588;13.224;2024-01-06T02:54:12;100374.38;;;3.28;82.72
85066;BME280;75401;52.588;13.224;2024-01-06T02:56:38;100365.50;;;3.29;83.49
85066;BME280;75401;52.588;13.224;2024-01-06T02:59:04;100367.31;;;3.28;83.42
85066;BME280;75401;52.588;13.224;2024-01-06T03:01:29;100379.66;;;3.28;83.54
85066;BME280;75401;52.588;13.224;2024-01-06T03:03:54;100371.66;;;3.29;83.41
85066;BME280;75401;52.588;13.224;2024-01-06T03:06:19;100372.72;;;3.27;83.34
85066;BME280;75401;52.588;13.224;2024-01-06T03:08:45;100384.09;;;3.27;83.33
85066;BME280;75401;52.588;13.224;2024-01-06T03:11:10;100374.34;;;3.16;83.37
85066;BME280;75401;52.588;13.224;2024-01-06T03:13:37;100362.31;;;3.12;83.38
85066;BME280;75401;52.588;13.224;2024-01-06T03:16:03;100376.03;;;3.17;83.58
85066;BME280;75401;52.588;13.224;2024-01-06T03:18:28;100385.66;;;3.18;83.48
85066;BME280;75401;52.588;13.224;2024-01-06T03:20:54;100367.72;;;3.11;83.60
85066;BME280;75401;52.588;13.224;2024-01-06T03:23:19;100378.56;;;3.19;83.45
85066;BME280;75401;52.588;13.224;2024-01-06T03:25:44;100372.44;;;3.18;83.29
85066;BME280;75401;52.588;13.224;2024-01-06T03:28:09;100375.19;;;3.17;83.58
85066;BME280;75401;52.588;13.224;2024-01-06T03:30:36;100370.66;;;3.19;83.66
85066;BME280;75401;52.588;13.224;2024-01-06T03:33:01;100379.50;;;3.18;83.53
85066;BME280;75401;52.588;13.224;2024-01-06T03:35:27;100372.66;;;3.15;83.56
85066;BME280;75401;52.588;13.224;2024-01-06T03:37:52;100391.44;;;3.24;83.53
85066;BME280;75401;52.588;13.224;2024-01-06T03:40:17;100395.03;;;3.23;83.29
85066;BME280;75401;52.588;13.224;2024-01-06T03:42:43;100396.09;;;3.20;83.68
85066;BME280;75401;52.588;13.224;2024-01-06T03:45:08;100400.31;;;3.23;83.54
85066;BME280;75401;52.588;13.224;2024-01-06T03:47:35;100408.25;;;3.23;83.48
85066;BME280;75401;52.588;13.224;2024-01-06T03:50:00;100406.31;;;3.25;83.13
85066;BME280;75401;52.588;13.224;2024-01-06T03:52:25;100414.03;;;3.28;83.62
85066;BME280;75401;52.588;13.224;2024-01-06T03:54:51;100414.03;;;3.28;83.37
85066;BME280;75401;52.588;13.224;2024-01-06T03:57:16;100411.50;;;3.26;83.60
85066;BME280;75401;52.588;13.224;2024-01-06T03:59:42;100382.84;;;3.09;83.27
85066;BME280;75401;52.588;13.224;2024-01-06T04:02:07;100411.00;;;3.21;83.61
85066;BME280;75401;52.588;13.224;2024-01-06T04:04:33;100412.81;;;3.21;83.73
85066;BME280;75401;52.588;13.224;2024-01-06T04:06:59;100418.47;;;3.27;83.60
85066;BME280;75401;52.588;13.224;2024-01-06T04:09:24;100418.38;;;3.29;83.38
85066;BME280;75401;52.588;13.224;2024-01-06T04:11:49;100421.09;;;3.27;83.57
85066;BME280;75401;52.588;13.224;2024-01-06T04:14:14;100418.81;;;3.23;83.39
85066;BME280;75401;52.588;13.224;2024-01-06T04:16:40;100420.78;;;3.32;83.58
85066;BME280;75401;52.588;13.224;2024-01-06T04:19:05;100425.09;;;3.33;83.52
85066;BME280;75401;52.588;13.224;2024-01-06T04:21:32;100430.22;;;3.23;83.38
85066;BME280;75401;52.588;13.224;2024-01-06T04:23:57;100445.66;;;3.29;83.43
85066;BME280;75401;52.588;13.224;2024-01-06T04:26:23;100432.53;;;3.28;83.44
85066;BME280;75401;52.588;13.224;2024-01-06T04:28:49;100448.38;;;3.28;83.40
85066;BME280;75401;52.588;13.224;2024-01-06T04:31:14;100449.97;;;3.30;83.38
85066;BME280;75401;52.588;13.224;2024-01-06T04:33:39;100449.88;;;3.32;83.54
85066;BME280;75401;52.588;13.224;2024-01-06T04:36:05;100445.53;;;3.31;83.58
85066;BME280;75401;52.588;13.224;2024-01-06T04:38:31;100445.03;;;3.26;82.91
85066;BME280;75401;52.588;13.224;2024-01-06T04:40:57;100433.72;;;3.24;83.42
85066;BME280;75401;52.588;13.224;2024-01-06T04:43:22;100436.81;;;3.17;83.40
85066;BME280;75401;52.588;13.224;2024-01-06T04:45:47;100442.72;;;3.21;83.35
85066;BME280;75401;52.588;13.224;2024-01-06T04:48:13;100450.31;;;3.26;83.37
85066;BME280;75401;52.588;13.224;2024-01-06T04:50:38;100431.34;;;3.08;83.16
85066;BME280;75401;52.588;13.224;2024-01-06T04:53:04;100454.97;;;3.22;83.37
85066;BME280;75401;52.588;13.224;2024-01-06T04:55:30;100467.09;;;3.25;83.57
85066;BME280;75401;52.588;13.224;2024-01-06T04:57:55;100459.09;;;3.26;83.28
85066;BME280;75401;52.588;13.224;2024-01-06T05:00:21;100464.59;;;3.23;83.55
85066;BME280;75401;52.588;13.224;2024-01-06T05:02:46;100462.78;;;3.24;83.30
85066;BME280;75401;52.588;13.224;2024-01-06T05:05:12;100469.66;;;3.26;83.28
85066;BME280;75401;52.588;13.224;2024-01-06T05:07:38;100470.81;;;3.22;83.56
85066;BME280;75401;52.588;13.224;2024-01-06T05:10:04;100469.25;;;3.19;83.57
85066;BME280;75401;52.588;13.224;2024-01-06T05:12:31;100458.63;;;3.08;83.63
85066;BME280;75401;52.588;13.224;2024-01-06T05:14:56;100478.34;;;3.15;83.58
85066;BME280;75401;52.588;13.224;2024-01-06T05:17:21;100476.66;;;3.14;83.71
85066;BME280;75401;52.588;13.224;2024-01-06T05:19:47;100478.34;;;3.15;83.27
85066;BME280;75401;52.588;13.224;2024-01-06T05:22:13;100475.72;;;3.15;83.66
85066;BME280;75401;52.588;13.224;2024-01-06T05:24:38;100476.06;;;3.11;83.79
85066;BME280;75401;52.588;13.224;2024-01-06T05:27:04;100492.75;;;3.11;83.78
85066;BME280;75401;52.588;13.224;2024-01-06T05:29:30;100493.81;;;3.09;83.78
85066;BME280;75401;52.588;13.224;2024-01-06T05:31:56;100485.78;;;3.10;83.62
85066;BME280;75401;52.588;13.224;2024-01-06T05:34:21;100492.97;;;3.08;83.82
85066;BME280;75401;52.588;13.224;2024-01-06T05:36:46;100483.13;;;3.10;83.66
85066;BME280;75401;52.588;13.224;2024-01-06T05:39:12;100489.34;;;3.09;83.84
85066;BME280;75401;52.588;13.224;2024-01-06T05:41:37;100500.69;;;3.11;83.48
85066;BME280;75401;52.588;13.224;2024-01-06T05:44:03;100484.25;;;2.95;84.22
85066;BME280;75401;52.588;13.224;2024-01-06T05:46:30;100514.84;;;3.10;83.47
85066;BME280;75401;52.588;13.224;2024-01-06T05:48:56;100520.97;;;3.11;83.96
85066;BME280;75401;52.588;13.224;2024-01-06T05:51:21;100517.91;;;3.04;83.34
85066;BME280;75401;52.588;13.224;2024-01-06T05:53:46;100520.56;;;3.04;83.88
85066;BME280;75401;52.588;13.224;2024-01-06T05:56:18;100525.84;;;3.04;83.84
85066;BME280;75401;52.588;13.224;2024-01-06T05:58:46;100524.25;;;3.02;83.43
85066;BME280;75401;52.588;13.224;2024-01-06T06:01:11;100533.03;;;3.02;83.77
85066;BME280;75401;52.588;13.224;2024-01-06T06:03:39;100532.19;;;3.02;83.67
85066;BME280;75401;52.588;13.224;2024-01-06T06:06:04;100533.16;;;3.01;83.84
85066;BME280;75401;52.588;13.224;2024-01-06T06:08:29;100544.78;;;2.98;83.45
85066;BME280;75401;52.588;13.224;2024-01-06T06:10:54;100552.38;;;3.03;83.64
85066;BME280;75401;52.588;13.224;2024-01-06T06:13:20;100501.19;;;2.68;83.52
85066;BME280;75401;52.588;13.224;2024-01-06T06:15:45;100560.50;;;3.00;83.59
85066;BME280;75401;52.588;13.224;2024-01-06T06:18:10;100568.56;;;2.98;83.77
85066;BME280;75401;52.588;13.224;2024-01-06T06:20:37;100579.34;;;2.95;84.02
85066;BME280;75401;52.588;13.224;2024-01-06T06:23:02;100585.34;;;2.97;83.58
85066;BME280;75401;52.588;13.224;2024-01-06T06:25:28;100577.63;;;2.94;83.97
85066;BME280;75401;52.588;13.224;2024-01-06T06:27:53;100586.75;;;2.90;83.60
85066;BME280;75401;52.588;13.224;2024-01-06T06:30:18;100586.00;;;2.88;83.72
85066;BME280;75401;52.588;13.224;2024-01-06T06:32:43;100595.19;;;2.95;84.03
85066;BME280;75401;52.588;13.224;2024-01-06T06:35:09;100596.34;;;2.91;83.92
85066;BME280;75401;52.588;13.224;2024-01-06T06:37:35;100582.53;;;2.75;84.18
85066;BME280;75401;52.588;13.224;2024-01-06T06:40:01;100602.59;;;2.90;84.16
85066;BME280;75401;52.588;13.224;2024-01-06T06:42:26;100596.88;;;2.84;83.64
85066;BME280;75401;52.588;13.224;2024-01-06T06:44:51;100578.91;;;2.76;83.94
85066;BME280;75401;52.588;13.224;2024-01-06T06:47:17;100604.59;;;2.87;83.65
85066;BME280;75401;52.588;13.224;2024-01-06T06:49:42;100600.34;;;2.84;83.97
85066;BME280;75401;52.588;13.224;2024-01-06T06:52:08;100605.97;;;2.80;83.79
85066;BME280;75401;52.588;13.224;2024-01-06T06:54:34;100619.06;;;2.81;84.13
85066;BME280;75401;52.588;13.224;2024-01-06T06:57:00;100622.34;;;2.85;83.97
85066;BME280;75401;52.588;13.224;2024-01-06T06:59:25;100623.28;;;2.84;84.08
85066;BME280;75401;52.588;13.224;2024-01-06T07:01:51;100625.50;;;2.77;84.11
85066;BME280;75401;52.588;13.224;2024-01-06T07:04:16;100630.59;;;2.80;83.75
85066;BME280;75401;52.588;13.224;2024-01-06T07:06:42;100632.25;;;2.81;83.76
85066;BME280;75401;52.588;13.224;2024-01-06T07:09:07;100631.63;;;2.78;83.69
85066;BME280;75401;52.588;13.224;2024-01-06T07:11:34;100641.22;;;2.79;83.84
85066;BME280;75401;52.588;13.224;2024-01-06T07:13:59;100651.38;;;2.85;83.93
85066;BME280;75401;52.588;13.224;2024-01-06T07:16:26;100647.28;;;2.81;83.91
85066;BME280;75401;52.588;13.224;2024-01-06T07:18:51;100655.81;;;2.72;83.98
85066;BME280;75401;52.588;13.224;2024-01-06T07:21:16;100656.34;;;2.77;83.88
85066;BME280;75401;52.588;13.224;2024-01-06T07:23:42;100657.72;;;2.70;84.00
85066;BME280;75401;52.588;13.224;2024-01-06T07:26:07;100652.22;;;2.73;84.29
85066;BME280;75401;52.588;13.224;2024-01-06T07:28:33;100662.34;;;2.66;83.42
85066;BME280;75401;52.588;13.224;2024-01-06T07:31:00;100672.63;;;2.71;84.07
85066;BME280;75401;52.588;13.224;2024-01-06T07:33:25;100666.56;;;2.69;84.22
85066;BME280;75401;52.588;13.224;2024-01-06T07:35:50;100668.94;;;2.73;84.25
85066;BME280;75401;52.588;13.224;2024-01-06T07:38:16;100685.59;;;2.74;83.66
85066;BME280;75401;52.588;13.224;2024-01-06T07:40:41;100679.91;;;2.67;83.69
85066;BME280;75401;52.588;13.224;2024-01-06T07:43:06;100677.56;;;2.63;83.92
85066;BME280;75401;52.588;13.224;2024-01-06T07:45:33;100682.84;;;2.63;84.07
85066;BME280;75401;52.588;13.224;2024-01-06T07:47:59;100684.53;;;2.64;83.68
85066;BME280;75401;52.588;13.224;2024-01-06T07:50:24;100693.09;;;2.67;83.38
85066;BME280;75401;52.588;13.224;2024-01-06T07:52:49;100697.44;;;2.68;83.74
85066;BME280;75401;52.588;13.224;2024-01-06T07:55:15;100703.66;;;2.67;84.07
85066;BME280;75401;52.588;13.224;2024-01-06T07:57:41;100708.81;;;2.69;83.49
85066;BME280;75401;52.588;13.224;2024-01-06T08:00:07;100713.91;;;2.72;83.38
85066;BME280;75401;52.588;13.224;2024-01-06T08:02:34;100720.78;;;2.74;83.78
85066;BME280;75401;52.588;13.224;2024-01-06T08:04:59;100711.97;;;2.61;83.50
85066;BME280;75401;52.588;13.224;2024-01-06T08:07:25;100729.94;;;2.69;83.49
85066;BME280;75401;52.588;13.224;2024-01-06T08:09:50;100719.50;;;2.67;83.21
85066;BME280;75401;52.588;13.224;2024-01-06T08:12:15;100725.63;;;2.68;83.17
85066;BME280;75401;52.588;13.224;2024-01-06T08:14:41;100737.13;;;2.67;83.34
85066;BME280;75401;52.588;13.224;2024-01-06T08:17:06;100744.31;;;2.65;83.53
85066;BME280;75401;52.588;13.224;2024-01-06T08:19:33;100751.69;;;2.60;83.23
85066;BME280;75401;52.588;13.224;2024-01-06T08:21:58;100744.81;;;2.57;83.58
85066;BME280;75401;52.588;13.224;2024-01-06T08:24:23;100750.97;;;2.58;83.23
85066;BME280;75401;52.588;13.224;2024-01-06T08:26:48;100748.41;;;2.56;83.52
85066;BME280;75401;52.588;13.224;2024-01-06T08:29:14;100749.38;;;2.55;83.32
85066;BME280;75401;52.588;13.224;2024-01-06T08:31:39;100749.16;;;2.58;83.18
85066;BME280;75401;52.588;13.224;2024-01-06T08:34:04;100759.72;;;2.58;83.75
85066;BME280;75401;52.588;13.224;2024-01-06T08:36:31;100767.00;;;2.54;83.85
85066;BME280;75401;52.588;13.224;2024-01-06T08:38:56;100772.34;;;2.53;83.57
85066;BME280;75401;52.588;13.224;2024-01-06T08:41:21;100775.09;;;2.51;83.68
85066;BME280;75401;52.588;13.224;2024-01-06T08:43:47;100779.53;;;2.51;83.03
85066;BME280;75401;52.588;13.224;2024-01-06T08:46:12;100789.16;;;2.52;83.63
85066;BME280;75401;52.588;13.224;2024-01-06T08:48:37;100784.94;;;2.49;83.40
85066;BME280;75401;52.588;13.224;2024-01-06T08:51:03;100796.34;;;2.50;83.53
85066;BME280;75401;52.588;13.224;2024-01-06T08:53:30;100754.78;;;2.39;83.17
85066;BME280;75401;52.588;13.224;2024-01-06T08:55:55;100797.28;;;2.76;82.50
85066;BME280;75401;52.588;13.224;2024-01-06T08:58:20;100808.78;;;2.75;82.38
85066;BME280;75401;52.588;13.224;2024-01-06T09:00:45;100810.75;;;2.71;81.78
85066;BME280;75401;52.588;13.224;2024-01-06T09:03:11;100814.91;;;2.75;82.08
85066;BME280;75401;52.588;13.224;2024-01-06T09:05:36;100825.47;;;2.75;82.15
85066;BME280;75401;52.588;13.224;2024-01-06T09:08:01;100818.31;;;2.77;82.05
85066;BME280;75401;52.588;13.224;2024-01-06T09:10:28;100825.38;;;2.77;81.59
85066;BME280;75401;52.588;13.224;2024-01-06T09:12:53;100834.25;;;2.76;81.96
85066;BME280;75401;52.588;13.224;2024-01-06T09:15:18;100841.69;;;2.83;82.06
85066;BME280;75401;52.588;13.224;2024-01-06T09:17:43;100841.69;;;2.83;82.21
85066;BME280;75401;52.588;13.224;2024-01-06T09:20:10;100846.53;;;2.89;82.10
85066;BME280;75401;52.588;13.224;2024-01-06T09:22:35;100844.81;;;2.76;81.31
85066;BME280;75401;52.588;13.224;2024-01-06T09:25:00;100844.31;;;2.83;81.46
85066;BME280;75401;52.588;13.224;2024-01-06T09:27:27;100850.16;;;2.88;81.47
85066;BME280;75401;52.588;13.224;2024-01-06T09:29:52;100851.44;;;2.95;81.07
85066;BME280;75401;52.588;13.224;2024-01-06T09:32:17;100860.97;;;2.98;80.91
85066;BME280;75401;52.588;13.224;2024-01-06T09:34:43;100854.75;;;2.99;80.85
85066;BME280;75401;52.588;13.224;2024-01-06T09:37:08;100855.88;;;2.95;80.80
85066;BME280;75401;52.588;13.224;2024-01-06T09:39:34;100857.47;;;2.97;80.86
85066;BME280;75401;52.588;13.224;2024-01-06T09:41:59;100858.50;;;2.95;80.69
85066;BME280;75401;52.588;13.224;2024-01-06T09:44:26;100863.06;;;2.93;80.30
85066;BME280;75401;52.588;13.224;2024-01-06T09:46:51;100843.16;;;2.87;80.58
85066;BME280;75401;52.588;13.224;2024-01-06T09:49:18;100866.56;;;2.93;80.68
85066;BME280;75401;52.588;13.224;2024-01-06T09:51:48;100870.13;;;2.92;80.39
85066;BME280;75401;52.588;13.224;2024-01-06T09:54:14;100869.69;;;2.86;80.61
85066;BME280;75401;52.588;13.224;2024-01-06T09:56:39;100872.88;;;2.91;80.40
85066;BME280;75401;52.588;13.224;2024-01-06T09:59:05;100868.38;;;2.79;80.24
85066;BME280;75401;52.588;13.224;2024-01-06T10:01:31;100884.50;;;2.88;80.21
85066;BME280;75401;52.588;13.224;2024-01-06T10:03:57;100887.69;;;2.93;80.63
85066;BME280;75401;52.588;13.224;2024-01-06T10:06:22;100869.38;;;2.90;80.35
85066;BME280;75401;52.588;13.224;2024-01-06T10:08:48;100884.84;;;2.96;79.96
85066;BME280;75401;52.588;13.224;2024-01-06T10:11:14;100884.75;;;2.98;79.93
85066;BME280;75401;52.588;13.224;2024-01-06T10:13:39;100882.28;;;2.95;79.53
85066;BME280;75401;52.588;13.224;2024-01-06T10:16:05;100894.22;;;2.88;79.82
85066;BME280;75401;52.588;13.224;2024-01-06T10:18:32;100899.69;;;2.85;80.36
85066;BME280;75401;52.588;13.224;2024-01-06T10:20:58;100900.13;;;2.91;80.43
85066;BME280;75401;52.588;13.224;2024-01-06T10:23:24;100910.78;;;2.90;80.07
85066;BME280;75401;52.588;13.224;2024-01-06T10:25:52;100910.06;;;2.88;79.55
85066;BME280;75401;52.588;13.224;2024-01-06T10:28:17;100907.22;;;2.91;79.93
85066;BME280;75401;52.588;13.224;2024-01-06T10:30:42;100899.19;;;2.92;79.84
85066;BME280;75401;52.588;13.224;2024-01-06T10:33:08;100908.91;;;2.92;79.74
85066;BME280;75401;52.588;13.224;2024-01-06T10:35:35;100903.91;;;2.87;79.70
85066;BME280;75401;52.588;13.224;2024-01-06T10:38:00;100892.31;;;2.90;79.91
85066;BME280;75401;52.588;13.224;2024-01-06T10:40:26;100899.72;;;2.97;79.63
85066;BME280;75401;52.588;13.224;2024-01-06T10:42:51;100892.00;;;2.94;79.72
85066;BME280;75401;52.588;13.224;2024-01-06T10:45:17;100895.31;;;2.98;80.16
85066;BME280;75401;52.588;13.224;2024-01-06T10:47:43;100899.44;;;3.02;80.13
85066;BME280;75401;52.588;13.224;2024-01-06T10:50:09;100897.22;;;2.96;79.69
85066;BME280;75401;52.588;13.224;2024-01-06T10:52:37;100900.59;;;2.98;79.48
85066;BME280;75401;52.588;13.224;2024-01-06T10:55:04;100892.41;;;2.88;79.72
85066;BME280;75401;52.588;13.224;2024-01-06T10:57:30;100898.44;;;2.90;79.60
85066;BME280;75401;52.588;13.224;2024-01-06T10:59:56;100904.66;;;2.89;79.24
85066;BME280;75401;52.588;13.224;2024-01-06T11:02:23;100908.34;;;2.87;79.60
85066;BME280;75401;52.588;13.224;2024-01-06T11:04:48;100892.00;;;2.94;80.13
85066;BME280;75401;52.588;13.224;2024-01-06T11:07:15;100902.69;;;2.93;79.77
85066;BME280;75401;52.588;13.224;2024-01-06T11:09:46;100903.34;;;2.96;79.49
85066;BME280;75401;52.588;13.224;2024-01-06T11:12:13;100892.66;;;2.98;79.17
85066;BME280;75401;52.588;13.224;2024-01-06T11:14:38;100905.88;;;2.98;79.68
85066;BME280;75401;52.588;13.224;2024-01-06T11:17:04;100904.22;;;2.83;79.97
85066;BME280;75401;52.588;13.224;2024-01-06T11:19:42;100915.03;;;2.92;79.73
85066;BME280;75401;52.588;13.224;2024-01-06T11:22:25;100905.56;;;2.76;78.88
85066;BME280;75401;52.588;13.224;2024-01-06T11:24:53;100905.81;;;2.85;79.93
85066;BME280;75401;52.588;13.224;2024-01-06T11:27:19;100918.06;;;2.86;79.61
85066;BME280;75401;52.588;13.224;2024-01-06T11:29:45;100917.91;;;2.75;79.37
85066;BME280;75401;52.588;13.224;2024-01-06T11:32:20;100921.84;;;2.82;79.79
85066;BME280;75401;52.588;13.224;2024-01-06T11:34:50;100921.97;;;2.81;78.89
85066;BME280;75401;52.588;13.224;2024-01-06T11:37:18;100921.84;;;2.82;79.51
85066;BME280;75401;52.588;13.224;2024-01-06T11:39:44;100903.31;;;2.70;79.62
85066;BME280;75401;52.588;13.224;2024-01-06T11:42:11;100913.94;;;2.82;79.78
85066;BME280;75401;52.588;13.224;2024-01-06T11:44:36;100911.47;;;2.79;78.40
85066;BME280;75401;52.588;13.224;2024-01-06T11:47:04;100910.13;;;2.86;79.43
85066;BME280;75401;52.588;13.224;2024-01-06T11:49:30;100923.16;;;2.89;79.36
85066;BME280;75401;52.588;13.224;2024-01-06T11:51:55;100899.00;;;2.81;79.50
85066;BME280;75401;52.588;13.224;2024-01-06T11:54:21;100917.13;;;2.87;79.46
85066;BME280;75401;52.588;13.224;2024-01-06T11:56:47;100909.44;;;2.70;78.29
85066;BME280;75401;52.588;13.224;2024-01-06T11:59:14;100910.34;;;2.83;79.16
85066;BME280;75401;52.588;13.224;2024-01-06T12:01:40;100919.09;;;2.84;78.95
85066;BME280;75401;52.588;13.224;2024-01-06T12:04:06;100925.19;;;2.72;79.54
85066;BME280;75401;52.588;13.224;2024-01-06T12:06:31;100918.22;;;2.57;79.69
85066;BME280;75401;52.588;13.224;2024-01-06T12:09:03;100909.44;;;2.56;80.13
85066;BME280;75401;52.588;13.224;2024-01-06T12:11:28;100911.03;;;2.59;79.61
85066;BME280;75401;52.588;13.224;2024-01-06T12:13:54;100917.19;;;2.73;78.55
85066;BME280;75401;52.588;13.224;2024-01-06T12:16:20;100917.63;;;2.80;79.39
85066;BME280;75401;52.588;13.224;2024-01-06T12:18:46;100909.59;;;2.81;78.89
85066;BME280;75401;52.588;13.224;2024-01-06T12:21:11;100912.44;;;2.78;78.02
85066;BME280;75401;52.588;13.224;2024-01-06T12:23:36;100921.66;;;2.85;78.50
85066;BME280;75401;52.588;13.224;2024-01-06T12:26:01;100928.53;;;2.88;78.07
85066;BME280;75401;52.588;13.224;2024-01-06T12:28:27;100927.56;;;2.89;78.14
85066;BME280;75401;52.588;13.224;2024-01-06T12:30:53;100934.94;;;2.84;77.54
85066;BME280;75401;52.588;13.224;2024-01-06T12:33:20;100890.03;;;2.43;78.79
85066;BME280;75401;52.588;13.224;2024-01-06T12:35:45;100929.03;;;2.80;78.39
85066;BME280;75401;52.588;13.224;2024-01-06T12:38:11;100937.69;;;2.82;78.07
85066;BME280;75401;52.588;13.224;2024-01-06T12:40:36;100934.94;;;2.84;78.40
85066;BME280;75401;52.588;13.224;2024-01-06T12:43:02;100889.94;;;2.59;78.60